createdAt,value
2019-02-16T00:03:10.816Z,94.50
2019-02-16T00:08:14.507Z,94.90
2019-02-16T00:13:18.578Z,95.20
2019-02-16T00:18:23.050Z,95.30
2019-02-16T00:23:26.970Z,95.40
2019-02-16T00:28:30.833Z,95.60
2019-02-16T00:33:34.780Z,95.50
2019-02-16T00:38:38.490Z,95.80
2019-02-16T00:43:42.188Z,95.70
2019-02-16T00:48:45.837Z,95.40
2019-02-16T00:53:49.563Z,95.20
2019-02-16T00:58:53.265Z,95.20
2019-02-16T01:03:56.983Z,95.80
2019-02-16T01:09:00.685Z,95.70
2019-02-16T01:14:04.503Z,95.50
2019-02-16T01:19:08.238Z,95.60
2019-02-16T01:24:11.925Z,95.90
2019-02-16T01:29:15.603Z,95.80
2019-02-16T01:34:19.904Z,96.00
2019-02-16T01:39:23.980Z,96.00
2019-02-16T01:44:27.670Z,96.10
2019-02-16T01:49:31.357Z,96.20
2019-02-16T01:54:35.483Z,96.50
2019-02-16T01:59:39.193Z,96.70
2019-02-16T02:04:42.913Z,96.80
2019-02-16T02:09:46.903Z,96.80
2019-02-16T02:14:50.968Z,97.00
2019-02-16T02:19:54.635Z,97.30
2019-02-16T02:24:58.341Z,97.50
2019-02-16T02:30:02.096Z,97.90
2019-02-16T02:35:06.417Z,98.40
2019-02-16T02:40:10.204Z,98.00
2019-02-16T02:45:13.958Z,97.40
2019-02-16T02:50:17.957Z,97.20
2019-02-16T02:55:21.747Z,97.40
2019-02-16T03:00:25.473Z,97.50
2019-02-16T03:05:29.473Z,97.50
2019-02-16T03:10:33.217Z,97.60
2019-02-16T03:15:37.311Z,97.60
2019-02-16T03:20:41.001Z,97.60
2019-02-16T03:25:51.337Z,97.90
2019-02-16T03:31:39.394Z,98.00
2019-02-16T03:37:18.868Z,98.20
2019-02-16T03:42:22.929Z,98.40
2019-02-16T03:47:26.692Z,98.60
2019-02-16T03:52:30.674Z,98.70
2019-02-16T03:57:34.730Z,98.80
2019-02-16T04:02:38.476Z,98.90
2019-02-16T04:07:42.532Z,99.00
2019-02-16T04:12:46.240Z,99.20
2019-02-16T04:17:49.952Z,99.20
2019-02-16T04:22:53.928Z,99.50
2019-02-16T04:27:57.645Z,99.70
2019-02-16T04:33:01.377Z,99.90
2019-02-16T04:38:05.364Z,99.90
2019-02-16T04:43:09.160Z,99.90
2019-02-16T04:48:12.858Z,99.90
2019-02-16T04:53:16.649Z,99.90
2019-02-16T04:58:20.380Z,99.90
2019-02-16T05:03:24.109Z,99.90
2019-02-16T05:08:27.870Z,99.90
2019-02-16T05:13:31.610Z,99.90
2019-02-16T05:18:35.373Z,99.90
2019-02-16T05:23:39.157Z,99.90
2019-02-16T05:28:42.915Z,99.90
2019-02-16T05:33:46.649Z,99.90
2019-02-16T05:38:50.796Z,99.90
2019-02-16T05:43:54.812Z,99.90
2019-02-16T05:48:58.763Z,99.90
2019-02-16T05:54:02.797Z,99.90
2019-02-16T05:59:08.094Z,99.90
2019-02-16T06:04:12.195Z,99.90
2019-02-16T06:09:16.177Z,99.90
2019-02-16T06:14:19.868Z,99.90
2019-02-16T06:19:23.553Z,99.90
2019-02-16T06:24:27.280Z,99.90
2019-02-16T06:29:31.310Z,99.90
2019-02-16T06:34:34.993Z,99.90
2019-02-16T06:39:38.763Z,99.90
2019-02-16T06:44:42.575Z,99.90
2019-02-16T06:49:46.277Z,99.90
2019-02-16T06:54:50.124Z,99.90
2019-02-16T06:59:54.332Z,99.90
2019-02-16T07:04:58.157Z,99.90
2019-02-16T07:10:01.977Z,99.90
2019-02-16T07:15:05.866Z,99.90
2019-02-16T07:20:09.956Z,99.90
2019-02-16T07:25:14.276Z,99.90
2019-02-16T07:30:17.971Z,99.90
2019-02-16T07:35:22.018Z,99.30
2019-02-16T07:40:25.709Z,93.90
2019-02-16T07:45:50.289Z,87.70
2019-02-16T07:50:58.266Z,76.40
2019-02-16T07:56:23.817Z,70.60
2019-02-16T08:01:46.639Z,73.30
2019-02-16T08:07:12.385Z,72.80
2019-02-16T08:12:23.097Z,73.40
2019-02-16T08:17:44.937Z,69.40
2019-02-16T08:23:10.795Z,65.60
2019-02-16T08:28:40.096Z,61.90
2019-02-16T08:34:02.163Z,56.90
2019-02-16T08:39:11.815Z,49.60
2019-02-16T08:44:37.691Z,45.10
2019-02-16T08:50:06.278Z,46.40
2019-02-16T08:55:26.682Z,43.10
2019-02-16T09:00:47.111Z,42.00
2019-02-16T09:05:56.043Z,43.10
2019-02-16T09:11:17.433Z,42.30
2019-02-16T09:16:29.101Z,42.50
2019-02-16T09:22:04.327Z,43.80
2019-02-16T09:27:39.509Z,40.20
2019-02-16T09:32:54.496Z,37.80
2019-02-16T09:38:05.223Z,34.60
2019-02-16T09:43:13.323Z,33.70
2019-02-16T09:48:28.322Z,36.20
2019-02-16T09:53:57.231Z,34.40
2019-02-16T09:59:09.192Z,33.10
2019-02-16T10:04:25.479Z,30.30
2019-02-16T10:09:48.858Z,30.80
2019-02-16T10:15:07.106Z,28.50
2019-02-16T10:20:21.058Z,28.60
2019-02-16T10:25:59.246Z,27.20
2019-02-16T10:31:17.504Z,26.50
2019-02-16T10:36:33.193Z,28.20
2019-02-16T10:41:59.130Z,27.70
2019-02-16T10:47:12.465Z,26.60
2019-02-16T10:52:26.120Z,26.50
2019-02-16T10:57:47.774Z,27.00
2019-02-16T11:03:00.389Z,26.90
2019-02-16T11:08:23.403Z,28.20
2019-02-16T11:13:46.223Z,27.40
2019-02-16T11:19:01.948Z,23.40
2019-02-16T11:24:18.248Z,22.40
2019-02-16T11:29:30.747Z,22.50
2019-02-16T11:34:59.841Z,23.00
2019-02-16T11:40:09.053Z,22.60
2019-02-16T11:45:34.902Z,24.60
2019-02-16T11:50:57.422Z,25.20
2019-02-16T11:56:14.929Z,23.90
2019-02-16T12:01:38.290Z,23.70
2019-02-16T12:06:48.236Z,25.40
2019-02-16T12:12:14.113Z,25.00
2019-02-16T12:17:25.615Z,25.20
2019-02-16T12:22:47.431Z,23.90
2019-02-16T12:28:16.394Z,24.60
2019-02-16T12:33:27.166Z,25.60
2019-02-16T12:38:38.981Z,26.40
2019-02-16T12:44:01.839Z,26.80
2019-02-16T12:49:43.098Z,25.70
2019-02-16T12:55:14.373Z,22.90
2019-02-16T13:00:29.984Z,24.60
2019-02-16T13:05:58.920Z,25.60
2019-02-16T13:11:20.327Z,25.20
2019-02-16T13:16:32.817Z,26.00
2019-02-16T13:21:53.795Z,27.10
2019-02-16T13:27:08.206Z,28.50
2019-02-16T13:32:29.621Z,25.60
2019-02-16T13:37:43.092Z,23.90
2019-02-16T13:42:59.426Z,25.70
2019-02-16T13:48:31.289Z,26.40
2019-02-16T13:53:46.541Z,27.10
2019-02-16T13:59:04.554Z,26.60
2019-02-16T14:04:20.259Z,27.60
2019-02-16T14:09:38.925Z,28.70
2019-02-16T14:14:49.815Z,27.50
2019-02-16T14:19:54.290Z,27.60
2019-02-16T14:25:01.346Z,28.50
2019-02-16T14:30:05.554Z,29.40
2019-02-16T14:35:10.090Z,29.60
2019-02-16T14:40:14.148Z,31.10
2019-02-16T14:45:17.890Z,31.50
2019-02-16T14:50:22.241Z,31.10
2019-02-16T14:55:26.049Z,31.70
2019-02-16T15:00:29.760Z,32.10
2019-02-16T15:05:33.450Z,33.30
2019-02-16T15:10:37.494Z,33.90
2019-02-16T15:15:41.231Z,34.10
2019-02-16T15:20:44.934Z,34.50
2019-02-16T15:25:48.641Z,34.60
2019-02-16T15:30:52.476Z,35.10
2019-02-16T15:35:56.509Z,35.40
2019-02-16T15:41:00.564Z,35.40
2019-02-16T15:46:04.422Z,35.00
2019-02-16T15:51:08.185Z,35.20
2019-02-16T15:56:11.939Z,36.30
2019-02-16T16:01:16.070Z,38.80
2019-02-16T16:06:19.799Z,41.00
2019-02-16T16:11:36.946Z,42.70
2019-02-16T16:16:58.933Z,43.80
2019-02-16T16:22:09.179Z,44.80
2019-02-16T16:27:34.777Z,45.70
2019-02-16T16:33:12.971Z,47.00
2019-02-16T16:38:30.705Z,47.90
2019-02-16T16:44:02.592Z,48.70
2019-02-16T16:49:20.876Z,49.90
2019-02-16T16:54:46.537Z,50.70
2019-02-16T17:00:15.542Z,51.50
2019-02-16T17:05:42.169Z,52.90
2019-02-16T17:10:57.757Z,54.60
2019-02-16T17:16:10.605Z,54.70
2019-02-16T17:21:32.965Z,55.60
2019-02-16T17:26:59.019Z,56.50
2019-02-16T17:32:21.877Z,57.60
2019-02-16T17:37:35.249Z,58.50
2019-02-16T17:43:08.520Z,59.60
2019-02-16T17:48:30.585Z,60.70
2019-02-16T17:54:11.721Z,61.60
2019-02-16T17:59:37.971Z,62.00
2019-02-16T18:04:50.701Z,61.90
2019-02-16T18:10:22.681Z,62.70
2019-02-16T18:15:44.408Z,63.50
2019-02-16T18:21:03.557Z,64.10
2019-02-16T18:26:17.795Z,65.20
2019-02-16T18:31:39.824Z,65.90
2019-02-16T18:37:07.938Z,66.40
2019-02-16T18:42:20.360Z,67.20
2019-02-16T18:47:48.246Z,68.40
2019-02-16T18:53:01.797Z,69.50
2019-02-16T18:58:15.291Z,70.50
2019-02-16T19:03:39.454Z,71.30
2019-02-16T19:08:56.850Z,72.70
2019-02-16T19:14:38.134Z,74.10
2019-02-16T19:20:14.413Z,75.40
2019-02-16T19:31:49.173Z,77.90
2019-02-16T19:37:01.193Z,79.20
2019-02-16T19:42:14.245Z,80.30
2019-02-16T19:47:36.195Z,81.20
2019-02-16T19:52:47.394Z,81.80
2019-02-16T19:57:57.372Z,82.70
2019-02-16T20:03:23.210Z,83.10
2019-02-16T20:08:38.979Z,83.60
2019-02-16T20:19:39.932Z,85.00
2019-02-16T20:25:01.706Z,85.50
2019-02-16T20:30:14.817Z,86.50
2019-02-16T20:35:36.323Z,87.50
2019-02-16T20:41:05.443Z,87.60
2019-02-16T20:46:27.084Z,88.50
2019-02-16T20:51:48.676Z,89.40
2019-02-16T20:57:07.147Z,89.80
2019-02-16T21:02:17.805Z,90.00
2019-02-16T21:07:36.368Z,90.70
2019-02-16T21:12:50.996Z,90.60
2019-02-16T21:18:09.653Z,91.10
2019-02-16T21:23:28.845Z,91.00
2019-02-16T21:28:55.094Z,91.10
2019-02-16T21:34:04.423Z,91.30
2019-02-16T21:39:26.045Z,91.80
2019-02-16T21:44:45.188Z,92.10
2019-02-16T21:50:11.154Z,92.40
2019-02-16T21:55:24.045Z,92.70
2019-02-16T22:00:55.908Z,92.70
2019-02-16T22:06:25.852Z,93.00
2019-02-16T22:11:47.832Z,93.00
2019-02-16T22:16:51.842Z,93.60
2019-02-16T22:21:55.535Z,94.20
2019-02-16T22:26:59.224Z,94.80
2019-02-16T22:32:02.901Z,95.20
2019-02-16T22:37:06.629Z,95.70
2019-02-16T22:42:10.550Z,95.90
2019-02-16T22:47:14.596Z,96.10
2019-02-16T22:52:18.284Z,96.30
2019-02-16T22:57:22.091Z,96.30
2019-02-16T23:02:26.113Z,96.30
2019-02-16T23:07:29.806Z,96.90
2019-02-16T23:12:33.572Z,96.50
2019-02-16T23:17:37.289Z,96.50
2019-02-16T23:22:40.965Z,96.90
2019-02-16T23:27:44.927Z,97.00
2019-02-16T23:32:48.875Z,96.80
2019-02-16T23:37:52.618Z,97.10
2019-02-16T23:42:56.302Z,96.60
2019-02-16T23:47:59.998Z,97.00
2019-02-16T23:53:03.700Z,97.20
2019-02-16T23:58:07.378Z,96.90
